sensor_id;sensor_type;location;lat;lon;timestamp;pressure;altitude;pressure_sealevel;temperature;humidity
59190;BME280;50749;51.636;4.948;2022-11-23T00:01:54;99562.56;;;18.17;58.88
59190;BME280;50749;51.636;4.948;2022-11-23T00:04:20;99566.88;;;18.15;59.46
59190;BME280;50749;51.636;4.948;2022-11-23T00:06:46;99570.44;;;18.15;59.48
59190;BME280;50749;51.636;4.948;2022-11-23T00:09:14;99573.59;;;18.14;59.29
59190;BME280;50749;51.636;4.948;2022-11-23T00:11:39;99570.03;;;18.13;59.47
59190;BME280;50749;51.636;4.948;2022-11-23T00:14:06;99575.56;;;18.13;59.13
59190;BME280;50749;51.636;4.948;2022-11-23T00:16:31;99562.94;;;18.12;59.48
59190;BME280;50749;51.636;4.948;2022-11-23T00:19:00;99581.88;;;18.10;59.51
59190;BME280;50749;51.636;4.948;2022-11-23T00:21:27;99581.88;;;18.10;58.96
59190;BME280;50749;51.636;4.948;2022-11-23T00:23:57;99581.09;;;18.10;59.41
59190;BME280;50749;51.636;4.948;2022-11-23T00:26:22;99577.53;;;18.09;59.58
59190;BME280;50749;51.636;4.948;2022-11-23T00:28:49;99585.84;;;18.09;59.94
59190;BME280;50749;51.636;4.948;2022-11-23T00:31:17;99589.00;;;18.08;59.75
59190;BME280;50749;51.636;4.948;2022-11-23T00:33:51;99577.16;;;18.07;59.52
59190;BME280;50749;51.636;4.948;2022-11-23T00:36:17;99585.44;;;18.07;59.44
59190;BME280;50749;51.636;4.948;2022-11-23T00:38:45;99582.25;;;18.05;59.58
59190;BME280;50749;51.636;4.948;2022-11-23T00:41:16;99581.84;;;18.03;59.55
59190;BME280;50749;51.636;4.948;2022-11-23T00:43:43;99585.78;;;18.02;59.68
59190;BME280;50749;51.636;4.948;2022-11-23T00:46:19;99583.84;;;18.03;59.65
59190;BME280;50749;51.636;4.948;2022-11-23T00:48:48;99589.75;;;18.01;59.53
59190;BME280;50749;51.636;4.948;2022-11-23T00:51:16;99591.72;;;18.00;59.28
59190;BME280;50749;51.636;4.948;2022-11-23T00:53:44;99590.53;;;17.98;59.51
59190;BME280;50749;51.636;4.948;2022-11-23T00:56:10;99585.00;;;17.98;59.30
59190;BME280;50749;51.636;4.948;2022-11-23T00:58:36;99593.28;;;17.98;59.78
59190;BME280;50749;51.636;4.948;2022-11-23T01:01:08;99594.47;;;17.97;59.62
59190;BME280;50749;51.636;4.948;2022-11-23T01:03:36;99596.03;;;17.94;59.26
59190;BME280;50749;51.636;4.948;2022-11-23T01:06:07;99595.25;;;17.94;59.34
59190;BME280;50749;51.636;4.948;2022-11-23T01:08:34;99589.31;;;17.92;59.04
59190;BME280;50749;51.636;4.948;2022-11-23T01:11:04;99592.06;;;17.92;59.53
59190;BME280;50749;51.636;4.948;2022-11-23T01:13:30;99589.31;;;17.92;59.16
59190;BME280;50749;51.636;4.948;2022-11-23T01:15:57;99596.81;;;17.91;59.28
59190;BME280;50749;51.636;4.948;2022-11-23T01:18:24;99601.56;;;17.91;59.20
59190;BME280;50749;51.636;4.948;2022-11-23T01:20:50;99604.72;;;17.89;59.19
59190;BME280;50749;51.636;4.948;2022-11-23T01:23:17;99599.19;;;17.89;58.92
59190;BME280;50749;51.636;4.948;2022-11-23T01:25:42;99598.41;;;17.89;58.98
59190;BME280;50749;51.636;4.948;2022-11-23T01:28:08;99614.16;;;17.88;59.04
59190;BME280;50749;51.636;4.948;2022-11-23T01:30:37;99615.72;;;17.86;59.01
59190;BME280;50749;51.636;4.948;2022-11-23T01:33:03;99620.44;;;17.85;58.96
59190;BME280;50749;51.636;4.948;2022-11-23T01:35:29;99618.06;;;17.83;59.16
59190;BME280;50749;51.636;4.948;2022-11-23T01:37:58;99615.72;;;17.82;58.96
59190;BME280;50749;51.636;4.948;2022-11-23T01:40:23;99622.81;;;17.83;58.88
59190;BME280;50749;51.636;4.948;2022-11-23T01:42:57;99625.16;;;17.81;58.84
59190;BME280;50749;51.636;4.948;2022-11-23T01:45:36;99619.63;;;17.81;58.63
59190;BME280;50749;51.636;4.948;2022-11-23T01:48:10;99630.69;;;17.81;58.67
59190;BME280;50749;51.636;4.948;2022-11-23T01:50:37;99622.78;;;17.79;58.90
59190;BME280;50749;51.636;4.948;2022-11-23T01:53:03;99621.63;;;17.80;59.16
59190;BME280;50749;51.636;4.948;2022-11-23T01:55:30;99622.00;;;17.79;58.54
59190;BME280;50749;51.636;4.948;2022-11-23T01:57:57;99621.19;;;17.78;58.63
59190;BME280;50749;51.636;4.948;2022-11-23T02:00:28;99615.25;;;17.76;58.34
59190;BME280;50749;51.636;4.948;2022-11-23T02:02:59;99629.88;;;17.77;58.22
59190;BME280;50749;51.636;4.948;2022-11-23T02:05:40;99629.09;;;17.76;58.13
59190;BME280;50749;51.636;4.948;2022-11-23T02:08:07;99634.63;;;17.76;58.49
59190;BME280;50749;51.636;4.948;2022-11-23T02:10:34;99625.53;;;17.76;58.48
59190;BME280;50749;51.636;4.948;2022-11-23T02:13:05;99623.53;;;17.73;58.60
59190;BME280;50749;51.636;4.948;2022-11-23T02:15:33;99616.03;;;17.73;58.51
59190;BME280;50749;51.636;4.948;2022-11-23T02:18:02;99628.28;;;17.72;57.97
59190;BME280;50749;51.636;4.948;2022-11-23T02:20:28;99624.31;;;17.73;58.16
59190;BME280;50749;51.636;4.948;2022-11-23T02:28:17;99636.19;;;17.70;58.04
59190;BME280;50749;51.636;4.948;2022-11-23T02:30:49;99630.66;;;17.70;58.25
59190;BME280;50749;51.636;4.948;2022-11-23T02:33:16;99641.69;;;17.70;58.01
59190;BME280;50749;51.636;4.948;2022-11-23T02:35:52;99644.47;;;17.70;58.11
59190;BME280;50749;51.636;4.948;2022-11-23T02:38:20;99638.50;;;17.68;58.24
59190;BME280;50749;51.636;4.948;2022-11-23T02:40:47;99640.09;;;17.69;58.34
59190;BME280;50749;51.636;4.948;2022-11-23T02:43:13;99645.22;;;17.67;58.00
59190;BME280;50749;51.636;4.948;2022-11-23T02:45:47;99644.84;;;17.69;58.13
59190;BME280;50749;51.636;4.948;2022-11-23T02:48:14;99640.50;;;17.68;58.13
59190;BME280;50749;51.636;4.948;2022-11-23T02:50:40;99640.88;;;17.66;58.27
59190;BME280;50749;51.636;4.948;2022-11-23T02:53:08;99640.09;;;17.66;58.02
59190;BME280;50749;51.636;4.948;2022-11-23T02:55:34;99644.00;;;17.64;58.20
59190;BME280;50749;51.636;4.948;2022-11-23T02:58:00;99647.56;;;17.65;58.00
59190;BME280;50749;51.636;4.948;2022-11-23T03:00:26;99654.28;;;17.64;57.42
59190;BME280;50749;51.636;4.948;2022-11-23T03:02:52;99646.38;;;17.62;58.00
59190;BME280;50749;51.636;4.948;2022-11-23T03:05:20;99645.59;;;17.62;57.72
59190;BME280;50749;51.636;4.948;2022-11-23T03:07:47;99648.34;;;17.62;57.88
59190;BME280;50749;51.636;4.948;2022-11-23T03:10:13;99647.94;;;17.60;57.71
59190;BME280;50749;51.636;4.948;2022-11-23T03:12:39;99654.28;;;17.60;57.51
59190;BME280;50749;51.636;4.948;2022-11-23T03:15:05;99653.44;;;17.60;57.56
59190;BME280;50749;51.636;4.948;2022-11-23T03:17:32;99647.94;;;17.60;57.81
59190;BME280;50749;51.636;4.948;2022-11-23T03:19:58;99657.41;;;17.59;57.41
59190;BME280;50749;51.636;4.948;2022-11-23T03:22:24;99658.19;;;17.59;57.65
59190;BME280;50749;51.636;4.948;2022-11-23T03:24:49;99654.25;;;17.57;57.65
59190;BME280;50749;51.636;4.948;2022-11-23T03:27:15;99651.88;;;17.59;57.74
59190;BME280;50749;51.636;4.948;2022-11-23T03:29:41;99655.81;;;17.58;57.41
59190;BME280;50749;51.636;4.948;2022-11-23T03:32:08;99653.06;;;17.58;57.47
59190;BME280;50749;51.636;4.948;2022-11-23T03:34:34;99655.81;;;17.58;57.26
59190;BME280;50749;51.636;4.948;2022-11-23T03:37:00;99653.44;;;17.56;57.21
59190;BME280;50749;51.636;4.948;2022-11-23T03:39:25;99658.97;;;17.56;57.28
59190;BME280;50749;51.636;4.948;2022-11-23T03:41:51;99658.97;;;17.56;57.16
59190;BME280;50749;51.636;4.948;2022-11-23T03:44:17;99659.78;;;17.57;57.32
59190;BME280;50749;51.636;4.948;2022-11-23T03:46:45;99655.41;;;17.56;57.28
59190;BME280;50749;51.636;4.948;2022-11-23T03:49:11;99662.09;;;17.55;57.42
59190;BME280;50749;51.636;4.948;2022-11-23T03:51:39;99663.31;;;17.54;57.20
59190;BME280;50749;51.636;4.948;2022-11-23T03:54:05;99658.94;;;17.53;57.39
59190;BME280;50749;51.636;4.948;2022-11-23T03:56:31;99658.94;;;17.53;57.53
59190;BME280;50749;51.636;4.948;2022-11-23T03:58:57;99666.06;;;17.54;57.42
59190;BME280;50749;51.636;4.948;2022-11-23T04:01:23;99661.31;;;17.54;57.00
59190;BME280;50749;51.636;4.948;2022-11-23T04:03:49;99661.69;;;17.53;57.05
59190;BME280;50749;51.636;4.948;2022-11-23T04:06:15;99657.38;;;17.52;57.03
59190;BME280;50749;51.636;4.948;2022-11-23T04:08:40;99656.19;;;17.53;57.14
59190;BME280;50749;51.636;4.948;2022-11-23T04:11:06;99658.94;;;17.53;57.02
59190;BME280;50749;51.636;4.948;2022-11-23T04:13:32;99660.53;;;17.54;57.28
59190;BME280;50749;51.636;4.948;2022-11-23T04:15:58;99657.41;;;17.55;56.88
59190;BME280;50749;51.636;4.948;2022-11-23T04:18:25;99655.81;;;17.58;57.04
59190;BME280;50749;51.636;4.948;2022-11-23T04:20:51;99666.09;;;17.61;56.96
59190;BME280;50749;51.636;4.948;2022-11-23T04:23:16;99659.06;;;17.67;56.41
59190;BME280;50749;51.636;4.948;2022-11-23T04:25:42;99665.78;;;17.73;56.46
59190;BME280;50749;51.636;4.948;2022-11-23T04:28:11;99665.03;;;17.80;56.10
59190;BME280;50749;51.636;4.948;2022-11-23T04:30:37;99663.50;;;17.86;55.86
59190;BME280;50749;51.636;4.948;2022-11-23T04:33:03;99661.19;;;17.92;55.70
59190;BME280;50749;51.636;4.948;2022-11-23T04:35:29;99667.94;;;17.98;56.02
59190;BME280;50749;51.636;4.948;2022-11-23T04:37:56;99668.75;;;18.02;55.57
59190;BME280;50749;51.636;4.948;2022-11-23T04:40:22;99661.28;;;18.06;55.53
59190;BME280;50749;51.636;4.948;2022-11-23T04:42:47;99661.69;;;18.08;55.73
59190;BME280;50749;51.636;4.948;2022-11-23T04:45:15;99656.97;;;18.12;55.82
59190;BME280;50749;51.636;4.948;2022-11-23T04:47:40;99653.78;;;18.14;55.83
59190;BME280;50749;51.636;4.948;2022-11-23T04:50:06;99651.47;;;18.16;55.85
59190;BME280;50749;51.636;4.948;2022-11-23T04:52:33;99655.00;;;18.16;55.95
59190;BME280;50749;51.636;4.948;2022-11-23T04:54:59;99657.38;;;18.18;55.95
59190;BME280;50749;51.636;4.948;2022-11-23T04:57:25;99652.25;;;18.20;56.21
59190;BME280;50749;51.636;4.948;2022-11-23T04:59:51;99655.41;;;18.18;55.99
59190;BME280;50749;51.636;4.948;2022-11-23T05:02:17;99654.22;;;18.19;56.39
59190;BME280;50749;51.636;4.948;2022-11-23T05:04:43;99648.69;;;18.19;55.77
59190;BME280;50749;51.636;4.948;2022-11-23T05:07:08;99649.09;;;18.22;56.11
59190;BME280;50749;51.636;4.948;2022-11-23T05:09:34;99649.09;;;18.22;55.75
59190;BME280;50749;51.636;4.948;2022-11-23T05:12:00;99657.00;;;18.23;56.04
59190;BME280;50749;51.636;4.948;2022-11-23T05:14:26;99651.88;;;18.25;55.68
59190;BME280;50749;51.636;4.948;2022-11-23T05:16:52;99657.03;;;18.27;55.96
59190;BME280;50749;51.636;4.948;2022-11-23T05:19:18;99661.78;;;18.30;55.55
59190;BME280;50749;51.636;4.948;2022-11-23T05:21:44;99666.53;;;18.33;55.42
59190;BME280;50749;51.636;4.948;2022-11-23T05:24:10;99660.63;;;18.34;55.33
59190;BME280;50749;51.636;4.948;2022-11-23T05:26:35;99671.31;;;18.36;55.51
59190;BME280;50749;51.636;4.948;2022-11-23T05:29:03;99664.56;;;18.37;55.28
59190;BME280;50749;51.636;4.948;2022-11-23T05:31:29;99666.56;;;18.40;55.70
59190;BME280;50749;51.636;4.948;2022-11-23T05:33:55;99666.97;;;18.42;55.47
59190;BME280;50749;51.636;4.948;2022-11-23T05:36:21;99665.78;;;18.43;55.71
59190;BME280;50749;51.636;4.948;2022-11-23T05:38:47;99653.94;;;18.46;55.46
59190;BME280;50749;51.636;4.948;2022-11-23T05:41:13;99663.81;;;18.47;55.59
59190;BME280;50749;51.636;4.948;2022-11-23T05:43:40;99662.66;;;18.48;55.29
59190;BME280;50749;51.636;4.948;2022-11-23T05:46:05;99664.25;;;18.49;55.55
59190;BME280;50749;51.636;4.948;2022-11-23T05:48:31;99653.94;;;18.50;55.76
59190;BME280;50749;51.636;4.948;2022-11-23T05:50:57;99663.03;;;18.50;55.61
59190;BME280;50749;51.636;4.948;2022-11-23T05:53:23;99663.84;;;18.51;55.96
59190;BME280;50749;51.636;4.948;2022-11-23T05:55:49;99664.63;;;18.51;55.35
59190;BME280;50749;51.636;4.948;2022-11-23T05:58:16;99660.28;;;18.50;55.57
59190;BME280;50749;51.636;4.948;2022-11-23T06:00:42;99660.28;;;18.50;55.75
59190;BME280;50749;51.636;4.948;2022-11-23T06:03:09;99659.50;;;18.53;55.38
59190;BME280;50749;51.636;4.948;2022-11-23T06:05:36;99659.50;;;18.53;55.23
59190;BME280;50749;51.636;4.948;2022-11-23T06:08:05;99650.03;;;18.54;55.31
59190;BME280;50749;51.636;4.948;2022-11-23T06:10:31;99644.09;;;18.56;55.45
59190;BME280;50749;51.636;4.948;2022-11-23T06:13:04;99645.66;;;18.57;55.01
59190;BME280;50749;51.636;4.948;2022-11-23T06:15:30;99648.03;;;18.59;55.24
59190;BME280;50749;51.636;4.948;2022-11-23T06:17:59;99649.63;;;18.60;55.27
59190;BME280;50749;51.636;4.948;2022-11-23T06:20:29;99653.97;;;18.61;55.06
59190;BME280;50749;51.636;4.948;2022-11-23T06:22:55;99654.41;;;18.63;55.23
59190;BME280;50749;51.636;4.948;2022-11-23T06:25:22;99665.47;;;18.63;55.61
59190;BME280;50749;51.636;4.948;2022-11-23T06:27:55;99655.19;;;18.63;55.55
59190;BME280;50749;51.636;4.948;2022-11-23T06:30:22;99659.94;;;18.63;55.02
59190;BME280;50749;51.636;4.948;2022-11-23T06:32:51;99663.47;;;18.63;55.14
59190;BME280;50749;51.636;4.948;2022-11-23T06:35:17;99658.72;;;18.60;55.48
59190;BME280;50749;51.636;4.948;2022-11-23T06:37:44;99657.94;;;18.60;55.16
59190;BME280;50749;51.636;4.948;2022-11-23T06:40:12;99659.91;;;18.59;55.10
59190;BME280;50749;51.636;4.948;2022-11-23T06:42:37;99660.72;;;18.60;55.85
59190;BME280;50749;51.636;4.948;2022-11-23T06:45:04;99667.03;;;18.60;55.56
59190;BME280;50749;51.636;4.948;2022-11-23T06:47:31;99672.97;;;18.62;55.74
59190;BME280;50749;51.636;4.948;2022-11-23T06:49:57;99672.97;;;18.62;56.34
59190;BME280;50749;51.636;4.948;2022-11-23T06:52:23;99671.41;;;18.61;55.93
59190;BME280;50749;51.636;4.948;2022-11-23T06:54:49;99671.78;;;18.63;55.68
59190;BME280;50749;51.636;4.948;2022-11-23T06:57:15;99675.34;;;18.64;55.96
59190;BME280;50749;51.636;4.948;2022-11-23T06:59:41;99673.78;;;18.63;56.38
59190;BME280;50749;51.636;4.948;2022-11-23T07:02:08;99682.84;;;18.60;55.89
59190;BME280;50749;51.636;4.948;2022-11-23T07:04:34;99692.34;;;18.62;55.72
59190;BME280;50749;51.636;4.948;2022-11-23T07:07:00;99693.94;;;18.63;56.00
59190;BME280;50749;51.636;4.948;2022-11-23T07:09:28;99700.66;;;18.66;55.74
59190;BME280;50749;51.636;4.948;2022-11-23T07:11:56;99699.47;;;18.67;55.59
59190;BME280;50749;51.636;4.948;2022-11-23T07:14:22;99706.59;;;18.68;55.80
59190;BME280;50749;51.636;4.948;2022-11-23T07:16:48;99706.59;;;18.68;55.72
59190;BME280;50749;51.636;4.948;2022-11-23T07:19:14;99701.06;;;18.68;55.88
59190;BME280;50749;51.636;4.948;2022-11-23T07:21:40;99714.91;;;18.68;55.50
59190;BME280;50749;51.636;4.948;2022-11-23T07:24:07;99718.84;;;18.67;55.73
59190;BME280;50749;51.636;4.948;2022-11-23T07:26:33;99718.84;;;18.67;56.01
59190;BME280;50749;51.636;4.948;2022-11-23T07:28:59;99724.38;;;18.67;55.42
59190;BME280;50749;51.636;4.948;2022-11-23T07:31:25;99732.31;;;18.65;55.53
59190;BME280;50749;51.636;4.948;2022-11-23T07:33:51;99725.94;;;18.64;56.12
59190;BME280;50749;51.636;4.948;2022-11-23T07:36:17;99733.84;;;18.62;55.76
59190;BME280;50749;51.636;4.948;2022-11-23T07:38:44;99740.97;;;18.60;55.80
59190;BME280;50749;51.636;4.948;2022-11-23T07:41:09;99740.56;;;18.57;55.77
59190;BME280;50749;51.636;4.948;2022-11-23T07:43:35;99740.16;;;18.55;55.62
59190;BME280;50749;51.636;4.948;2022-11-23T07:46:01;99747.28;;;18.53;55.71
59190;BME280;50749;51.636;4.948;2022-11-23T07:48:28;99751.22;;;18.52;55.74
59190;BME280;50749;51.636;4.948;2022-11-23T07:50:54;99750.81;;;18.50;55.67
59190;BME280;50749;51.636;4.948;2022-11-23T07:53:20;99756.72;;;18.48;55.26
59190;BME280;50749;51.636;4.948;2022-11-23T07:55:46;99757.50;;;18.45;55.18
59190;BME280;50749;51.636;4.948;2022-11-23T07:58:12;99764.25;;;18.44;55.22
59190;BME280;50749;51.636;4.948;2022-11-23T08:00:38;99762.63;;;18.43;55.00
59190;BME280;50749;51.636;4.948;2022-11-23T08:03:05;99763.03;;;18.42;54.92
59190;BME280;50749;51.636;4.948;2022-11-23T08:05:32;99760.63;;;18.40;55.12
59190;BME280;50749;51.636;4.948;2022-11-23T08:07:59;99764.59;;;18.39;55.19
59190;BME280;50749;51.636;4.948;2022-11-23T08:10:29;99763.00;;;18.38;55.18
59190;BME280;50749;51.636;4.948;2022-11-23T08:13:02;99771.69;;;18.36;54.77
59190;BME280;50749;51.636;4.948;2022-11-23T08:15:28;99768.16;;;18.36;54.94
59190;BME280;50749;51.636;4.948;2022-11-23T08:17:56;99763.38;;;18.33;54.77
59190;BME280;50749;51.636;4.948;2022-11-23T08:20:26;99768.91;;;18.33;54.84
59190;BME280;50749;51.636;4.948;2022-11-23T08:22:52;99764.94;;;18.30;54.90
59190;BME280;50749;51.636;4.948;2022-11-23T08:25:26;99762.16;;;18.30;54.52
59190;BME280;50749;51.636;4.948;2022-11-23T08:27:57;99758.63;;;18.30;54.61
59190;BME280;50749;51.636;4.948;2022-11-23T08:30:25;99760.97;;;18.28;54.30
59190;BME280;50749;51.636;4.948;2022-11-23T08:32:52;99758.59;;;18.26;54.25
59190;BME280;50749;51.636;4.948;2022-11-23T08:35:17;99745.16;;;18.25;54.59
59190;BME280;50749;51.636;4.948;2022-11-23T08:37:45;99744.38;;;18.24;54.70
59190;BME280;50749;51.636;4.948;2022-11-23T08:40:11;99752.22;;;18.22;54.48
59190;BME280;50749;51.636;4.948;2022-11-23T08:42:37;99755.00;;;18.22;54.29
59190;BME280;50749;51.636;4.948;2022-11-23T08:45:04;99758.16;;;18.20;54.46
59190;BME280;50749;51.636;4.948;2022-11-23T08:47:33;99759.34;;;18.19;54.34
59190;BME280;50749;51.636;4.948;2022-11-23T08:50:00;99759.72;;;18.18;54.47
59190;BME280;50749;51.636;4.948;2022-11-23T08:52:26;99758.94;;;18.17;54.55
59190;BME280;50749;51.636;4.948;2022-11-23T08:54:52;99758.94;;;18.17;54.70
59190;BME280;50749;51.636;4.948;2022-11-23T08:57:19;99751.03;;;18.16;54.33
59190;BME280;50749;51.636;4.948;2022-11-23T08:59:45;99748.25;;;18.16;54.63
59190;BME280;50749;51.636;4.948;2022-11-23T09:02:12;99749.44;;;18.15;54.41
59190;BME280;50749;51.636;4.948;2022-11-23T09:04:39;99744.28;;;18.13;54.31
59190;BME280;50749;51.636;4.948;2022-11-23T09:07:05;99746.25;;;18.13;54.73
59190;BME280;50749;51.636;4.948;2022-11-23T09:09:31;99739.13;;;18.12;54.68
59190;BME280;50749;51.636;4.948;2022-11-23T09:11:58;99732.03;;;18.11;54.56
59190;BME280;50749;51.636;4.948;2022-11-23T09:14:24;99740.34;;;18.11;54.90
59190;BME280;50749;51.636;4.948;2022-11-23T09:16:52;99731.22;;;18.10;54.58
59190;BME280;50749;51.636;4.948;2022-11-23T09:19:19;99728.84;;;18.09;54.49
59190;BME280;50749;51.636;4.948;2022-11-23T09:21:44;99726.50;;;18.07;54.77
59190;BME280;50749;51.636;4.948;2022-11-23T09:24:11;99716.22;;;18.08;54.70
59190;BME280;50749;51.636;4.948;2022-11-23T09:26:38;99718.19;;;18.07;55.07
59190;BME280;50749;51.636;4.948;2022-11-23T09:29:04;99712.66;;;18.07;54.87
59190;BME280;50749;51.636;4.948;2022-11-23T09:31:30;99714.22;;;18.08;53.77
59190;BME280;50749;51.636;4.948;2022-11-23T09:33:57;99706.31;;;18.07;53.92
59190;BME280;50749;51.636;4.948;2022-11-23T09:36:22;99690.09;;;18.05;54.31
59190;BME280;50749;51.636;4.948;2022-11-23T09:38:49;99685.38;;;18.06;54.20
59190;BME280;50749;51.636;4.948;2022-11-23T09:44:05;99684.16;;;18.03;54.54
59190;BME280;50749;51.636;4.948;2022-11-23T09:47:13;99686.94;;;18.03;54.89
59190;BME280;50749;51.636;4.948;2022-11-23T09:49:57;99688.09;;;18.02;55.17
59190;BME280;50749;51.636;4.948;2022-11-23T09:52:26;99690.09;;;18.01;54.93
59190;BME280;50749;51.636;4.948;2022-11-23T09:54:56;99692.47;;;18.07;54.86
59190;BME280;50749;51.636;4.948;2022-11-23T09:57:29;99691.69;;;18.03;54.66
59190;BME280;50749;51.636;4.948;2022-11-23T10:00:05;99685.78;;;18.04;54.40
59190;BME280;50749;51.636;4.948;2022-11-23T10:02:35;99690.09;;;18.01;54.01
59190;BME280;50749;51.636;4.948;2022-11-23T10:05:05;99690.44;;;17.96;54.30
59190;BME280;50749;51.636;4.948;2022-11-23T10:07:48;99688.84;;;17.92;54.19
59190;BME280;50749;51.636;4.948;2022-11-23T10:16:36;99687.66;;;17.89;54.10
59190;BME280;50749;51.636;4.948;2022-11-23T10:22:16;99689.22;;;17.90;54.10
59190;BME280;50749;51.636;4.948;2022-11-23T10:24:49;99694.72;;;17.87;53.90
59190;BME280;50749;51.636;4.948;2022-11-23T10:27:21;99686.00;;;17.85;54.10
59190;BME280;50749;51.636;4.948;2022-11-23T10:29:49;99694.28;;;17.81;53.97
59190;BME280;50749;51.636;4.948;2022-11-23T10:34:59;99689.94;;;17.83;54.01
59190;BME280;50749;51.636;4.948;2022-11-23T10:37:27;99678.47;;;17.81;54.12
59190;BME280;50749;51.636;4.948;2022-11-23T10:39:55;99674.53;;;17.82;54.27
59190;BME280;50749;51.636;4.948;2022-11-23T10:42:27;99678.09;;;17.83;53.78
59190;BME280;50749;51.636;4.948;2022-11-23T10:44:55;99672.94;;;17.81;53.83
59190;BME280;50749;51.636;4.948;2022-11-23T10:47:37;99666.25;;;17.82;53.99
59190;BME280;50749;51.636;4.948;2022-11-23T10:50:22;99656.75;;;17.83;53.83
59190;BME280;50749;51.636;4.948;2022-11-23T10:52:54;99663.50;;;17.82;54.03
59190;BME280;50749;51.636;4.948;2022-11-23T10:55:25;99655.19;;;17.82;53.91
59190;BME280;50749;51.636;4.948;2022-11-23T10:57:53;99653.59;;;17.81;53.55
59190;BME280;50749;51.636;4.948;2022-11-23T11:00:21;99646.50;;;17.80;53.77
59190;BME280;50749;51.636;4.948;2022-11-23T11:02:52;99643.75;;;17.80;53.58
59190;BME280;50749;51.636;4.948;2022-11-23T11:05:31;99640.16;;;17.80;53.59
59190;BME280;50749;51.636;4.948;2022-11-23T11:08:02;99633.84;;;17.79;53.44
59190;BME280;50749;51.636;4.948;2022-11-23T11:10:35;99625.16;;;17.77;53.49
59190;BME280;50749;51.636;4.948;2022-11-23T11:13:03;99623.56;;;17.76;53.70
59190;BME280;50749;51.636;4.948;2022-11-23T11:18:46;99604.59;;;17.78;53.36
59190;BME280;50749;51.636;4.948;2022-11-23T11:21:33;99597.50;;;17.77;53.08
59190;BME280;50749;51.636;4.948;2022-11-23T11:24:04;99592.78;;;17.78;53.63
59190;BME280;50749;51.636;4.948;2022-11-23T11:26:33;99590.38;;;17.76;53.13
59190;BME280;50749;51.636;4.948;2022-11-23T11:29:03;99587.63;;;17.76;53.46
59190;BME280;50749;51.636;4.948;2022-11-23T11:36:35;99579.34;;;17.76;53.21
59190;BME280;50749;51.636;4.948;2022-11-23T11:39:19;99571.81;;;17.77;53.62
59190;BME280;50749;51.636;4.948;2022-11-23T11:41:48;99582.88;;;17.77;53.50
59190;BME280;50749;51.636;4.948;2022-11-23T11:44:20;99573.00;;;17.76;53.12
59190;BME280;50749;51.636;4.948;2022-11-23T11:46:56;99567.50;;;17.76;53.62
59190;BME280;50749;51.636;4.948;2022-11-23T11:49:36;99561.19;;;17.75;53.58
59190;BME280;50749;51.636;4.948;2022-11-23T11:52:14;99559.19;;;17.76;53.32
59190;BME280;50749;51.636;4.948;2022-11-23T11:57:47;99555.66;;;17.75;53.23
59190;BME280;50749;51.636;4.948;2022-11-23T12:00:18;99553.28;;;17.74;53.37
59190;BME280;50749;51.636;4.948;2022-11-23T12:05:47;99552.47;;;17.73;53.43
59190;BME280;50749;51.636;4.948;2022-11-23T12:08:35;99548.13;;;17.72;52.81
59190;BME280;50749;51.636;4.948;2022-11-23T12:11:05;99545.75;;;17.71;52.98
59190;BME280;50749;51.636;4.948;2022-11-23T12:13:36;99533.91;;;17.70;53.33
59190;BME280;50749;51.636;4.948;2022-11-23T12:26:44;99524.41;;;17.68;53.14
59190;BME280;50749;51.636;4.948;2022-11-23T12:40:39;99514.94;;;17.69;53.38
59190;BME280;50749;51.636;4.948;2022-11-23T12:43:17;99506.28;;;17.70;53.69
59190;BME280;50749;51.636;4.948;2022-11-23T12:48:54;99519.72;;;17.75;53.78
59190;BME280;50749;51.636;4.948;2022-11-23T12:54:25;99514.22;;;17.82;53.40
59190;BME280;50749;51.636;4.948;2022-11-23T12:59:45;99528.91;;;17.94;53.68
59190;BME280;50749;51.636;4.948;2022-11-23T13:14:22;99547.13;;;18.20;53.66
59190;BME280;50749;51.636;4.948;2022-11-23T13:16:59;99559.81;;;18.25;53.75
59190;BME280;50749;51.636;4.948;2022-11-23T13:20:00;99560.19;;;18.27;53.24
59190;BME280;50749;51.636;4.948;2022-11-23T13:22:33;99582.72;;;18.29;53.72
59190;BME280;50749;51.636;4.948;2022-11-23T13:25:12;99581.16;;;18.31;53.50
59190;BME280;50749;51.636;4.948;2022-11-23T13:32:52;99587.88;;;18.34;53.81
59190;BME280;50749;51.636;4.948;2022-11-23T13:40:25;99585.13;;;18.34;54.18
59190;BME280;50749;51.636;4.948;2022-11-23T13:42:53;99599.38;;;18.36;53.86
59190;BME280;50749;51.636;4.948;2022-11-23T13:45:25;99603.69;;;18.37;54.08
59190;BME280;50749;51.636;4.948;2022-11-23T13:50:58;99605.69;;;18.40;53.92
59190;BME280;50749;51.636;4.948;2022-11-23T13:55:56;99612.44;;;18.46;54.59
59190;BME280;50749;51.636;4.948;2022-11-23T14:03:52;99614.44;;;18.49;54.16
59190;BME280;50749;51.636;4.948;2022-11-23T14:12:24;99616.81;;;18.54;53.94
59190;BME280;50749;51.636;4.948;2022-11-23T14:15:12;99619.19;;;18.56;54.08
59190;BME280;50749;51.636;4.948;2022-11-23T14:26:24;99636.59;;;18.60;54.15
59190;BME280;50749;51.636;4.948;2022-11-23T14:31:37;99633.41;;;18.58;54.74
59190;BME280;50749;51.636;4.948;2022-11-23T14:43:14;99625.91;;;18.59;54.66
59190;BME280;50749;51.636;4.948;2022-11-23T14:45:44;99638.97;;;18.58;54.46
59190;BME280;50749;51.636;4.948;2022-11-23T14:48:28;99634.22;;;18.59;53.95
59190;BME280;50749;51.636;4.948;2022-11-23T14:51:03;99631.44;;;18.59;54.06
59190;BME280;50749;51.636;4.948;2022-11-23T14:53:34;99632.66;;;18.61;54.36
59190;BME280;50749;51.636;4.948;2022-11-23T14:56:04;99643.72;;;18.61;54.46
59190;BME280;50749;51.636;4.948;2022-11-23T14:58:31;99646.09;;;18.63;54.47
59190;BME280;50749;51.636;4.948;2022-11-23T15:01:01;99638.19;;;18.65;54.61
59190;BME280;50749;51.636;4.948;2022-11-23T15:03:30;99636.97;;;18.66;54.29
59190;BME280;50749;51.636;4.948;2022-11-23T15:06:06;99631.88;;;18.68;54.11
59190;BME280;50749;51.636;4.948;2022-11-23T15:08:42;99639.38;;;18.71;53.92
59190;BME280;50749;51.636;4.948;2022-11-23T15:11:16;99642.94;;;18.71;54.48
59190;BME280;50749;51.636;4.948;2022-11-23T15:13:46;99644.50;;;18.72;54.38